sensor_id;sensor_type;location;lat;lon;timestamp;temperature;humidity
810;DHT22;387;48.772;9.186;2024-01-30T00:01:11;5.30;76.70
810;DHT22;387;48.772;9.186;2024-01-30T00:03:37;5.30;76.20
810;DHT22;387;48.772;9.186;2024-01-30T00:06:03;5.20;75.90
810;DHT22;387;48.772;9.186;2024-01-30T00:08:30;5.00;76.20
810;DHT22;387;48.772;9.186;2024-01-30T00:10:56;5.00;76.80
810;DHT22;387;48.772;9.186;2024-01-30T00:13:21;5.00;77.40
810;DHT22;387;48.772;9.186;2024-01-30T00:15:48;5.00;77.60
810;DHT22;387;48.772;9.186;2024-01-30T00:18:14;5.00;77.60
810;DHT22;387;48.772;9.186;2024-01-30T00:20:39;4.90;77.70
810;DHT22;387;48.772;9.186;2024-01-30T00:23:05;4.90;77.70
810;DHT22;387;48.772;9.186;2024-01-30T00:25:30;4.90;77.70
810;DHT22;387;48.772;9.186;2024-01-30T00:27:56;5.00;77.80
810;DHT22;387;48.772;9.186;2024-01-30T00:30:22;5.00;77.60
810;DHT22;387;48.772;9.186;2024-01-30T00:32:47;5.00;77.10
810;DHT22;387;48.772;9.186;2024-01-30T00:35:13;4.90;77.70
810;DHT22;387;48.772;9.186;2024-01-30T00:37:38;4.80;78.10
810;DHT22;387;48.772;9.186;2024-01-30T00:40:04;4.80;78.40
810;DHT22;387;48.772;9.186;2024-01-30T00:42:31;4.80;78.60
810;DHT22;387;48.772;9.186;2024-01-30T00:44:57;4.80;78.70
810;DHT22;387;48.772;9.186;2024-01-30T00:47:23;4.80;78.70
810;DHT22;387;48.772;9.186;2024-01-30T00:49:48;4.80;78.70
810;DHT22;387;48.772;9.186;2024-01-30T00:52:15;4.80;78.90
810;DHT22;387;48.772;9.186;2024-01-30T00:54:41;4.70;78.90
810;DHT22;387;48.772;9.186;2024-01-30T00:57:07;4.70;79.30
810;DHT22;387;48.772;9.186;2024-01-30T00:59:32;4.80;79.30
810;DHT22;387;48.772;9.186;2024-01-30T01:01:58;4.80;79.30
810;DHT22;387;48.772;9.186;2024-01-30T01:04:23;4.80;79.20
810;DHT22;387;48.772;9.186;2024-01-30T01:06:49;4.80;79.20
810;DHT22;387;48.772;9.186;2024-01-30T01:09:15;4.80;79.00
810;DHT22;387;48.772;9.186;2024-01-30T01:11:40;4.80;78.70
810;DHT22;387;48.772;9.186;2024-01-30T01:14:06;4.80;78.70
810;DHT22;387;48.772;9.186;2024-01-30T01:16:33;4.80;78.60
810;DHT22;387;48.772;9.186;2024-01-30T01:18:59;4.80;78.70
810;DHT22;387;48.772;9.186;2024-01-30T01:21:25;4.80;78.70
810;DHT22;387;48.772;9.186;2024-01-30T01:23:51;4.80;78.60
810;DHT22;387;48.772;9.186;2024-01-30T01:26:17;4.80;78.70
810;DHT22;387;48.772;9.186;2024-01-30T01:28:42;4.90;78.60
810;DHT22;387;48.772;9.186;2024-01-30T01:31:08;4.90;78.30
810;DHT22;387;48.772;9.186;2024-01-30T01:33:34;4.90;78.30
810;DHT22;387;48.772;9.186;2024-01-30T01:36:00;4.80;78.10
810;DHT22;387;48.772;9.186;2024-01-30T01:38:28;4.80;78.30
810;DHT22;387;48.772;9.186;2024-01-30T01:40:53;4.70;78.10
810;DHT22;387;48.772;9.186;2024-01-30T01:43:19;4.70;78.40
810;DHT22;387;48.772;9.186;2024-01-30T01:45:45;4.70;78.60
810;DHT22;387;48.772;9.186;2024-01-30T01:48:11;4.60;78.30
810;DHT22;387;48.772;9.186;2024-01-30T01:50:38;4.50;78.70
810;DHT22;387;48.772;9.186;2024-01-30T01:53:07;4.50;79.20
810;DHT22;387;48.772;9.186;2024-01-30T01:55:33;4.40;79.00
810;DHT22;387;48.772;9.186;2024-01-30T01:58:00;4.40;79.50
810;DHT22;387;48.772;9.186;2024-01-30T02:00:25;4.40;79.70
810;DHT22;387;48.772;9.186;2024-01-30T02:02:51;4.40;79.70
810;DHT22;387;48.772;9.186;2024-01-30T02:05:19;4.50;79.70
810;DHT22;387;48.772;9.186;2024-01-30T02:07:46;4.60;79.60
810;DHT22;387;48.772;9.186;2024-01-30T02:10:12;4.50;79.30
810;DHT22;387;48.772;9.186;2024-01-30T02:12:38;4.50;79.20
810;DHT22;387;48.772;9.186;2024-01-30T02:15:04;4.50;79.20
810;DHT22;387;48.772;9.186;2024-01-30T02:17:31;4.40;79.30
810;DHT22;387;48.772;9.186;2024-01-30T02:19:57;4.50;79.50
810;DHT22;387;48.772;9.186;2024-01-30T02:22:23;4.40;79.50
810;DHT22;387;48.772;9.186;2024-01-30T02:24:49;4.40;79.50
810;DHT22;387;48.772;9.186;2024-01-30T02:27:15;4.50;79.50
810;DHT22;387;48.772;9.186;2024-01-30T02:29:40;4.50;79.30
810;DHT22;387;48.772;9.186;2024-01-30T02:32:06;4.40;79.00
810;DHT22;387;48.772;9.186;2024-01-30T02:34:33;4.30;79.50
810;DHT22;387;48.772;9.186;2024-01-30T02:36:58;4.30;79.90
810;DHT22;387;48.772;9.186;2024-01-30T02:39:24;4.20;80.20
810;DHT22;387;48.772;9.186;2024-01-30T02:41:50;4.30;80.30
810;DHT22;387;48.772;9.186;2024-01-30T02:44:15;4.30;80.30
810;DHT22;387;48.772;9.186;2024-01-30T02:46:41;4.20;80.20
810;DHT22;387;48.772;9.186;2024-01-30T02:49:07;4.30;80.30
810;DHT22;387;48.772;9.186;2024-01-30T02:51:34;4.10;80.20
810;DHT22;387;48.772;9.186;2024-01-30T02:53:59;4.20;80.30
810;DHT22;387;48.772;9.186;2024-01-30T02:56:25;4.20;80.20
810;DHT22;387;48.772;9.186;2024-01-30T02:58:51;4.20;80.00
810;DHT22;387;48.772;9.186;2024-01-30T03:01:16;4.30;80.00
810;DHT22;387;48.772;9.186;2024-01-30T03:03:42;4.20;79.90
810;DHT22;387;48.772;9.186;2024-01-30T03:06:08;4.30;79.90
810;DHT22;387;48.772;9.186;2024-01-30T03:08:34;4.10;79.70
810;DHT22;387;48.772;9.186;2024-01-30T03:11:00;4.10;80.20
810;DHT22;387;48.772;9.186;2024-01-30T03:13:26;4.10;80.30
810;DHT22;387;48.772;9.186;2024-01-30T03:15:52;4.10;80.30
810;DHT22;387;48.772;9.186;2024-01-30T03:18:18;4.10;80.50
810;DHT22;387;48.772;9.186;2024-01-30T03:20:43;4.10;80.60
810;DHT22;387;48.772;9.186;2024-01-30T03:23:09;4.10;80.60
810;DHT22;387;48.772;9.186;2024-01-30T03:25:34;4.10;80.50
810;DHT22;387;48.772;9.186;2024-01-30T03:28:00;4.10;80.60
810;DHT22;387;48.772;9.186;2024-01-30T03:30:25;4.10;80.60
810;DHT22;387;48.772;9.186;2024-01-30T03:32:51;4.10;80.30
810;DHT22;387;48.772;9.186;2024-01-30T03:35:18;4.10;80.30
810;DHT22;387;48.772;9.186;2024-01-30T03:37:43;4.20;80.20
810;DHT22;387;48.772;9.186;2024-01-30T03:40:09;4.20;80.00
810;DHT22;387;48.772;9.186;2024-01-30T03:42:35;4.20;79.70
810;DHT22;387;48.772;9.186;2024-01-30T03:45:01;4.20;79.70
810;DHT22;387;48.772;9.186;2024-01-30T03:47:27;4.10;79.70
810;DHT22;387;48.772;9.186;2024-01-30T03:49:53;4.20;79.90
810;DHT22;387;48.772;9.186;2024-01-30T03:52:18;4.20;79.60
810;DHT22;387;48.772;9.186;2024-01-30T03:54:44;4.20;79.20
810;DHT22;387;48.772;9.186;2024-01-30T03:57:10;4.10;79.20
810;DHT22;387;48.772;9.186;2024-01-30T03:59:35;4.20;79.20
810;DHT22;387;48.772;9.186;2024-01-30T04:02:01;4.30;79.00
810;DHT22;387;48.772;9.186;2024-01-30T04:04:26;4.30;78.90
810;DHT22;387;48.772;9.186;2024-01-30T04:06:52;4.30;78.40
810;DHT22;387;48.772;9.186;2024-01-30T04:09:17;4.20;78.40
810;DHT22;387;48.772;9.186;2024-01-30T04:11:44;4.10;78.70
810;DHT22;387;48.772;9.186;2024-01-30T04:14:10;4.20;78.70
810;DHT22;387;48.772;9.186;2024-01-30T04:16:36;4.10;78.40
810;DHT22;387;48.772;9.186;2024-01-30T04:19:02;4.20;78.70
810;DHT22;387;48.772;9.186;2024-01-30T04:21:27;4.20;78.40
810;DHT22;387;48.772;9.186;2024-01-30T04:23:53;4.20;78.40
810;DHT22;387;48.772;9.186;2024-01-30T04:26:19;4.10;78.40
810;DHT22;387;48.772;9.186;2024-01-30T04:28:45;4.10;78.90
810;DHT22;387;48.772;9.186;2024-01-30T04:31:11;4.10;78.90
810;DHT22;387;48.772;9.186;2024-01-30T04:33:37;4.10;78.90
810;DHT22;387;48.772;9.186;2024-01-30T04:36:07;4.10;78.90
810;DHT22;387;48.772;9.186;2024-01-30T04:38:34;4.20;78.70
810;DHT22;387;48.772;9.186;2024-01-30T04:40:59;4.20;78.30
810;DHT22;387;48.772;9.186;2024-01-30T04:43:25;4.10;78.10
810;DHT22;387;48.772;9.186;2024-01-30T04:45:51;4.00;78.60
810;DHT22;387;48.772;9.186;2024-01-30T04:48:17;4.10;78.60
810;DHT22;387;48.772;9.186;2024-01-30T04:50:43;4.00;78.40
810;DHT22;387;48.772;9.186;2024-01-30T04:53:09;4.10;78.40
810;DHT22;387;48.772;9.186;2024-01-30T04:55:35;4.10;78.40
810;DHT22;387;48.772;9.186;2024-01-30T04:58:01;4.10;78.40
810;DHT22;387;48.772;9.186;2024-01-30T05:00:27;4.10;78.40
810;DHT22;387;48.772;9.186;2024-01-30T05:02:54;4.10;78.60
810;DHT22;387;48.772;9.186;2024-01-30T05:05:20;4.00;78.40
810;DHT22;387;48.772;9.186;2024-01-30T05:07:47;4.00;78.90
810;DHT22;387;48.772;9.186;2024-01-30T05:10:13;4.10;78.90
810;DHT22;387;48.772;9.186;2024-01-30T05:12:39;4.10;78.60
810;DHT22;387;48.772;9.186;2024-01-30T05:15:05;4.00;78.60
810;DHT22;387;48.772;9.186;2024-01-30T05:17:30;3.90;78.70
810;DHT22;387;48.772;9.186;2024-01-30T05:19:56;3.90;79.00
810;DHT22;387;48.772;9.186;2024-01-30T05:22:21;4.00;79.20
810;DHT22;387;48.772;9.186;2024-01-30T05:24:47;4.00;79.00
810;DHT22;387;48.772;9.186;2024-01-30T05:27:13;3.90;79.00
810;DHT22;387;48.772;9.186;2024-01-30T05:29:41;3.90;79.20
810;DHT22;387;48.772;9.186;2024-01-30T05:32:07;3.90;79.00
810;DHT22;387;48.772;9.186;2024-01-30T05:34:33;4.00;79.20
810;DHT22;387;48.772;9.186;2024-01-30T05:36:58;4.00;79.00
810;DHT22;387;48.772;9.186;2024-01-30T05:39:24;3.90;79.00
810;DHT22;387;48.772;9.186;2024-01-30T05:41:50;3.90;79.30
810;DHT22;387;48.772;9.186;2024-01-30T05:44:15;3.90;79.30
810;DHT22;387;48.772;9.186;2024-01-30T05:46:41;3.90;79.20
810;DHT22;387;48.772;9.186;2024-01-30T05:49:07;3.80;79.30
810;DHT22;387;48.772;9.186;2024-01-30T05:51:32;3.90;79.50
810;DHT22;387;48.772;9.186;2024-01-30T05:53:58;3.90;79.30
810;DHT22;387;48.772;9.186;2024-01-30T05:56:24;3.80;79.30
810;DHT22;387;48.772;9.186;2024-01-30T05:58:49;3.80;79.50
810;DHT22;387;48.772;9.186;2024-01-30T06:01:18;3.90;79.70
810;DHT22;387;48.772;9.186;2024-01-30T06:03:43;3.80;79.60
810;DHT22;387;48.772;9.186;2024-01-30T06:06:10;3.90;79.70
810;DHT22;387;48.772;9.186;2024-01-30T06:08:36;3.90;79.20
810;DHT22;387;48.772;9.186;2024-01-30T06:11:01;3.90;79.20
810;DHT22;387;48.772;9.186;2024-01-30T06:13:27;3.90;79.00
810;DHT22;387;48.772;9.186;2024-01-30T06:15:52;3.80;79.20
810;DHT22;387;48.772;9.186;2024-01-30T06:18:18;3.90;79.30
810;DHT22;387;48.772;9.186;2024-01-30T06:20:46;3.80;79.30
810;DHT22;387;48.772;9.186;2024-01-30T06:23:11;3.80;79.60
810;DHT22;387;48.772;9.186;2024-01-30T06:25:40;3.80;79.50
810;DHT22;387;48.772;9.186;2024-01-30T06:28:05;3.80;79.50
810;DHT22;387;48.772;9.186;2024-01-30T06:30:34;3.80;79.60
810;DHT22;387;48.772;9.186;2024-01-30T06:33:00;3.80;79.50
810;DHT22;387;48.772;9.186;2024-01-30T06:35:25;3.80;79.50
810;DHT22;387;48.772;9.186;2024-01-30T06:37:51;3.80;79.30
810;DHT22;387;48.772;9.186;2024-01-30T06:40:17;3.80;79.50
810;DHT22;387;48.772;9.186;2024-01-30T06:42:42;3.80;79.30
810;DHT22;387;48.772;9.186;2024-01-30T06:45:08;3.90;79.20
810;DHT22;387;48.772;9.186;2024-01-30T06:47:34;3.90;79.00
810;DHT22;387;48.772;9.186;2024-01-30T06:49:59;3.90;79.20
810;DHT22;387;48.772;9.186;2024-01-30T06:52:25;3.90;79.20
810;DHT22;387;48.772;9.186;2024-01-30T06:54:50;3.80;78.90
810;DHT22;387;48.772;9.186;2024-01-30T06:57:16;3.90;79.20
810;DHT22;387;48.772;9.186;2024-01-30T06:59:41;4.00;79.00
810;DHT22;387;48.772;9.186;2024-01-30T07:02:09;3.90;78.60
810;DHT22;387;48.772;9.186;2024-01-30T07:04:35;3.90;78.60
810;DHT22;387;48.772;9.186;2024-01-30T07:07:03;3.90;78.70
810;DHT22;387;48.772;9.186;2024-01-30T07:09:30;3.90;79.20
810;DHT22;387;48.772;9.186;2024-01-30T07:11:55;4.00;78.70
810;DHT22;387;48.772;9.186;2024-01-30T07:14:23;4.00;78.40
810;DHT22;387;48.772;9.186;2024-01-30T07:16:49;4.00;78.60
810;DHT22;387;48.772;9.186;2024-01-30T07:19:15;4.00;78.60
810;DHT22;387;48.772;9.186;2024-01-30T07:21:41;4.00;78.40
810;DHT22;387;48.772;9.186;2024-01-30T07:24:06;4.00;78.70
810;DHT22;387;48.772;9.186;2024-01-30T07:26:32;3.90;78.60
810;DHT22;387;48.772;9.186;2024-01-30T07:28:57;4.00;78.70
810;DHT22;387;48.772;9.186;2024-01-30T07:31:23;4.10;78.60
810;DHT22;387;48.772;9.186;2024-01-30T07:33:49;4.10;78.40
810;DHT22;387;48.772;9.186;2024-01-30T07:36:14;4.10;78.40
810;DHT22;387;48.772;9.186;2024-01-30T07:38:40;4.20;78.30
810;DHT22;387;48.772;9.186;2024-01-30T07:41:06;4.10;78.10
810;DHT22;387;48.772;9.186;2024-01-30T07:43:32;4.30;78.10
810;DHT22;387;48.772;9.186;2024-01-30T07:45:59;4.30;77.70
810;DHT22;387;48.772;9.186;2024-01-30T07:48:26;4.30;77.70
810;DHT22;387;48.772;9.186;2024-01-30T07:50:52;4.30;77.70
810;DHT22;387;48.772;9.186;2024-01-30T07:53:18;4.40;77.60
810;DHT22;387;48.772;9.186;2024-01-30T07:55:47;4.40;77.60
810;DHT22;387;48.772;9.186;2024-01-30T07:58:12;4.50;77.10
810;DHT22;387;48.772;9.186;2024-01-30T08:00:38;4.60;76.50
810;DHT22;387;48.772;9.186;2024-01-30T08:03:04;4.60;76.80
810;DHT22;387;48.772;9.186;2024-01-30T08:05:30;4.60;77.10
810;DHT22;387;48.772;9.186;2024-01-30T08:07:56;4.60;76.50
810;DHT22;387;48.772;9.186;2024-01-30T08:10:21;4.60;76.10
810;DHT22;387;48.772;9.186;2024-01-30T08:12:47;4.80;75.90
810;DHT22;387;48.772;9.186;2024-01-30T08:15:12;4.90;75.70
810;DHT22;387;48.772;9.186;2024-01-30T08:17:39;5.00;75.20
810;DHT22;387;48.772;9.186;2024-01-30T08:20:05;5.10;74.90
810;DHT22;387;48.772;9.186;2024-01-30T08:22:32;5.30;74.00
810;DHT22;387;48.772;9.186;2024-01-30T08:24:58;5.30;73.70
810;DHT22;387;48.772;9.186;2024-01-30T08:27:25;5.20;73.70
810;DHT22;387;48.772;9.186;2024-01-30T08:29:51;5.20;74.00
810;DHT22;387;48.772;9.186;2024-01-30T08:32:16;5.20;74.20
810;DHT22;387;48.772;9.186;2024-01-30T08:34:42;5.30;74.20
810;DHT22;387;48.772;9.186;2024-01-30T08:37:08;5.40;74.20
810;DHT22;387;48.772;9.186;2024-01-30T08:39:33;5.50;73.90
810;DHT22;387;48.772;9.186;2024-01-30T08:41:59;5.60;73.60
810;DHT22;387;48.772;9.186;2024-01-30T08:44:25;5.70;73.30
810;DHT22;387;48.772;9.186;2024-01-30T08:46:51;5.80;73.20
810;DHT22;387;48.772;9.186;2024-01-30T08:49:16;5.90;72.70
810;DHT22;387;48.772;9.186;2024-01-30T08:51:43;5.80;72.70
810;DHT22;387;48.772;9.186;2024-01-30T08:54:10;5.80;73.00
810;DHT22;387;48.772;9.186;2024-01-30T08:56:36;5.80;73.00
810;DHT22;387;48.772;9.186;2024-01-30T08:59:01;5.90;73.00
810;DHT22;387;48.772;9.186;2024-01-30T09:01:27;5.90;73.00
810;DHT22;387;48.772;9.186;2024-01-30T09:03:53;5.90;73.30
810;DHT22;387;48.772;9.186;2024-01-30T09:06:18;5.80;74.00
810;DHT22;387;48.772;9.186;2024-01-30T09:08:44;5.90;74.80
810;DHT22;387;48.772;9.186;2024-01-30T09:11:13;6.10;74.30
810;DHT22;387;48.772;9.186;2024-01-30T09:13:55;6.00;73.90
810;DHT22;387;48.772;9.186;2024-01-30T09:16:21;6.10;73.60
810;DHT22;387;48.772;9.186;2024-01-30T09:18:47;6.10;73.50
810;DHT22;387;48.772;9.186;2024-01-30T09:21:12;6.00;73.30
810;DHT22;387;48.772;9.186;2024-01-30T09:23:38;6.00;73.60
810;DHT22;387;48.772;9.186;2024-01-30T09:26:03;6.10;73.60
810;DHT22;387;48.772;9.186;2024-01-30T09:28:29;6.10;73.50
810;DHT22;387;48.772;9.186;2024-01-30T09:30:54;6.20;73.30
810;DHT22;387;48.772;9.186;2024-01-30T09:33:20;6.40;73.00
810;DHT22;387;48.772;9.186;2024-01-30T09:35:46;6.50;72.60
810;DHT22;387;48.772;9.186;2024-01-30T09:38:12;6.60;72.30
810;DHT22;387;48.772;9.186;2024-01-30T09:40:40;6.70;71.70
810;DHT22;387;48.772;9.186;2024-01-30T09:43:07;6.80;71.40
810;DHT22;387;48.772;9.186;2024-01-30T09:45:33;6.80;71.10
810;DHT22;387;48.772;9.186;2024-01-30T09:48:00;6.80;71.00
810;DHT22;387;48.772;9.186;2024-01-30T09:50:26;6.90;71.30
810;DHT22;387;48.772;9.186;2024-01-30T09:52:55;7.20;71.10
810;DHT22;387;48.772;9.186;2024-01-30T09:55:21;7.50;70.70
810;DHT22;387;48.772;9.186;2024-01-30T09:57:47;7.80;70.10
810;DHT22;387;48.772;9.186;2024-01-30T10:00:13;7.90;69.50
810;DHT22;387;48.772;9.186;2024-01-30T10:02:39;7.90;68.80
810;DHT22;387;48.772;9.186;2024-01-30T10:05:06;8.10;68.80
810;DHT22;387;48.772;9.186;2024-01-30T10:07:33;8.30;68.20
810;DHT22;387;48.772;9.186;2024-01-30T10:09:59;8.40;67.90
810;DHT22;387;48.772;9.186;2024-01-30T10:12:29;8.50;67.30
810;DHT22;387;48.772;9.186;2024-01-30T10:14:56;8.40;67.20
810;DHT22;387;48.772;9.186;2024-01-30T10:17:25;8.10;67.60
810;DHT22;387;48.772;9.186;2024-01-30T10:19:50;8.00;67.90
810;DHT22;387;48.772;9.186;2024-01-30T10:22:17;8.10;68.00
810;DHT22;387;48.772;9.186;2024-01-30T10:24:43;8.30;67.90
810;DHT22;387;48.772;9.186;2024-01-30T10:27:10;8.50;67.60
810;DHT22;387;48.772;9.186;2024-01-30T10:29:37;8.80;67.20
810;DHT22;387;48.772;9.186;2024-01-30T10:32:04;9.00;67.00
810;DHT22;387;48.772;9.186;2024-01-30T10:34:30;9.30;66.60
810;DHT22;387;48.772;9.186;2024-01-30T10:37:08;9.20;65.80
810;DHT22;387;48.772;9.186;2024-01-30T10:39:44;9.20;65.60
810;DHT22;387;48.772;9.186;2024-01-30T10:42:18;9.20;66.00
810;DHT22;387;48.772;9.186;2024-01-30T10:47:34;9.20;65.60
810;DHT22;387;48.772;9.186;2024-01-30T10:50:00;9.00;66.00
810;DHT22;387;48.772;9.186;2024-01-30T10:52:28;9.10;66.10
810;DHT22;387;48.772;9.186;2024-01-30T10:54:56;9.30;65.40
810;DHT22;387;48.772;9.186;2024-01-30T10:57:26;9.10;65.40
810;DHT22;387;48.772;9.186;2024-01-30T11:00:00;8.90;66.10
810;DHT22;387;48.772;9.186;2024-01-30T11:02:26;9.10;66.30
810;DHT22;387;48.772;9.186;2024-01-30T11:04:57;9.20;66.00
810;DHT22;387;48.772;9.186;2024-01-30T11:07:28;9.30;65.70
810;DHT22;387;48.772;9.186;2024-01-30T11:10:04;9.50;65.30
810;DHT22;387;48.772;9.186;2024-01-30T11:12:32;9.50;65.40
810;DHT22;387;48.772;9.186;2024-01-30T11:15:18;9.40;65.40
810;DHT22;387;48.772;9.186;2024-01-30T11:17:53;9.50;65.40
810;DHT22;387;48.772;9.186;2024-01-30T11:22:50;9.90;65.00
810;DHT22;387;48.772;9.186;2024-01-30T11:25:17;9.90;64.70
810;DHT22;387;48.772;9.186;2024-01-30T11:27:44;9.80;64.80
810;DHT22;387;48.772;9.186;2024-01-30T11:30:10;9.80;65.30
810;DHT22;387;48.772;9.186;2024-01-30T11:32:36;9.90;64.80
810;DHT22;387;48.772;9.186;2024-01-30T11:35:06;9.80;64.80
810;DHT22;387;48.772;9.186;2024-01-30T11:37:37;10.10;65.10
810;DHT22;387;48.772;9.186;2024-01-30T11:40:05;10.40;64.70
810;DHT22;387;48.772;9.186;2024-01-30T11:42:32;10.70;64.40
810;DHT22;387;48.772;9.186;2024-01-30T11:45:00;10.70;64.10
810;DHT22;387;48.772;9.186;2024-01-30T11:47:26;10.50;63.90
810;DHT22;387;48.772;9.186;2024-01-30T11:49:52;10.20;64.70
810;DHT22;387;48.772;9.186;2024-01-30T11:52:17;10.30;64.80
810;DHT22;387;48.772;9.186;2024-01-30T11:54:43;10.20;65.00
810;DHT22;387;48.772;9.186;2024-01-30T11:57:09;10.20;65.00
810;DHT22;387;48.772;9.186;2024-01-30T11:59:34;10.20;65.00
810;DHT22;387;48.772;9.186;2024-01-30T12:02:00;10.40;65.10
810;DHT22;387;48.772;9.186;2024-01-30T12:04:28;10.60;64.70
810;DHT22;387;48.772;9.186;2024-01-30T12:06:54;10.40;64.70
810;DHT22;387;48.772;9.186;2024-01-30T12:09:20;10.50;64.80
810;DHT22;387;48.772;9.186;2024-01-30T12:11:48;10.70;64.80
810;DHT22;387;48.772;9.186;2024-01-30T12:14:14;10.90;64.70
810;DHT22;387;48.772;9.186;2024-01-30T12:16:40;11.00;64.50
810;DHT22;387;48.772;9.186;2024-01-30T12:19:07;10.80;64.40
810;DHT22;387;48.772;9.186;2024-01-30T12:21:33;10.80;64.50
810;DHT22;387;48.772;9.186;2024-01-30T12:23:59;11.00;64.70
810;DHT22;387;48.772;9.186;2024-01-30T12:26:25;11.10;64.40
810;DHT22;387;48.772;9.186;2024-01-30T12:28:54;11.00;64.40
810;DHT22;387;48.772;9.186;2024-01-30T12:31:27;10.80;64.50
810;DHT22;387;48.772;9.186;2024-01-30T12:33:53;11.00;64.50
810;DHT22;387;48.772;9.186;2024-01-30T12:36:20;11.20;64.70
810;DHT22;387;48.772;9.186;2024-01-30T12:38:46;11.40;64.20
810;DHT22;387;48.772;9.186;2024-01-30T12:41:12;11.20;63.90
810;DHT22;387;48.772;9.186;2024-01-30T12:43:37;11.00;64.50
810;DHT22;387;48.772;9.186;2024-01-30T12:46:03;10.90;64.70
810;DHT22;387;48.772;9.186;2024-01-30T12:48:29;11.00;64.80
810;DHT22;387;48.772;9.186;2024-01-30T12:50:56;11.10;64.50
810;DHT22;387;48.772;9.186;2024-01-30T12:53:21;11.20;64.20
810;DHT22;387;48.772;9.186;2024-01-30T12:55:47;11.30;64.20
810;DHT22;387;48.772;9.186;2024-01-30T12:58:15;11.50;63.80
810;DHT22;387;48.772;9.186;2024-01-30T13:00:41;11.50;63.70
810;DHT22;387;48.772;9.186;2024-01-30T13:03:09;11.40;64.10
810;DHT22;387;48.772;9.186;2024-01-30T13:05:35;11.50;64.10
810;DHT22;387;48.772;9.186;2024-01-30T13:08:01;11.60;64.10
810;DHT22;387;48.772;9.186;2024-01-30T13:10:26;11.60;63.80
810;DHT22;387;48.772;9.186;2024-01-30T13:12:52;11.70;63.80
810;DHT22;387;48.772;9.186;2024-01-30T13:15:18;11.80;63.40
810;DHT22;387;48.772;9.186;2024-01-30T13:17:44;12.00;63.40
810;DHT22;387;48.772;9.186;2024-01-30T13:20:12;11.90;63.10
810;DHT22;387;48.772;9.186;2024-01-30T13:22:39;12.00;63.10
810;DHT22;387;48.772;9.186;2024-01-30T13:25:05;12.20;63.10
810;DHT22;387;48.772;9.186;2024-01-30T13:27:31;12.50;62.30
810;DHT22;387;48.772;9.186;2024-01-30T13:29:56;12.70;61.90
810;DHT22;387;48.772;9.186;2024-01-30T13:32:22;12.60;61.60
810;DHT22;387;48.772;9.186;2024-01-30T13:34:47;12.70;61.60
810;DHT22;387;48.772;9.186;2024-01-30T13:37:13;12.90;61.50
810;DHT22;387;48.772;9.186;2024-01-30T13:39:39;13.10;61.30
810;DHT22;387;48.772;9.186;2024-01-30T13:42:04;13.10;60.40
810;DHT22;387;48.772;9.186;2024-01-30T13:44:30;13.00;60.60
810;DHT22;387;48.772;9.186;2024-01-30T13:46:55;12.90;60.70
810;DHT22;387;48.772;9.186;2024-01-30T13:49:21;13.20;61.00
810;DHT22;387;48.772;9.186;2024-01-30T13:51:47;13.40;61.30
810;DHT22;387;48.772;9.186;2024-01-30T13:54:13;13.40;60.70
810;DHT22;387;48.772;9.186;2024-01-30T13:56:38;13.70;60.60
810;DHT22;387;48.772;9.186;2024-01-30T13:59:04;13.90;60.30
810;DHT22;387;48.772;9.186;2024-01-30T14:01:31;14.00;60.10
810;DHT22;387;48.772;9.186;2024-01-30T14:03:57;13.90;59.60
810;DHT22;387;48.772;9.186;2024-01-30T14:06:22;13.40;60.10
810;DHT22;387;48.772;9.186;2024-01-30T14:08:48;13.10;60.90
810;DHT22;387;48.772;9.186;2024-01-30T14:11:13;13.00;61.30
810;DHT22;387;48.772;9.186;2024-01-30T14:13:39;12.90;61.90
810;DHT22;387;48.772;9.186;2024-01-30T14:16:05;12.80;62.30
810;DHT22;387;48.772;9.186;2024-01-30T14:18:31;13.00;62.30
810;DHT22;387;48.772;9.186;2024-01-30T14:20:56;13.10;62.00
810;DHT22;387;48.772;9.186;2024-01-30T14:23:22;13.10;61.90
810;DHT22;387;48.772;9.186;2024-01-30T14:25:48;12.90;61.70
810;DHT22;387;48.772;9.186;2024-01-30T14:28:14;12.80;62.50
810;DHT22;387;48.772;9.186;2024-01-30T14:30:40;12.80;62.30
810;DHT22;387;48.772;9.186;2024-01-30T14:33:05;12.40;62.80
810;DHT22;387;48.772;9.186;2024-01-30T14:35:32;12.20;63.70
810;DHT22;387;48.772;9.186;2024-01-30T14:37:59;12.10;63.90
810;DHT22;387;48.772;9.186;2024-01-30T14:40:24;12.10;64.10
810;DHT22;387;48.772;9.186;2024-01-30T14:42:50;12.30;63.90
810;DHT22;387;48.772;9.186;2024-01-30T14:45:16;12.50;63.40
810;DHT22;387;48.772;9.186;2024-01-30T14:47:41;12.40;63.80
810;DHT22;387;48.772;9.186;2024-01-30T14:50:07;12.30;63.70
810;DHT22;387;48.772;9.186;2024-01-30T14:52:34;12.30;63.90
810;DHT22;387;48.772;9.186;2024-01-30T14:55:00;12.30;63.90
810;DHT22;387;48.772;9.186;2024-01-30T14:57:26;12.30;63.80
810;DHT22;387;48.772;9.186;2024-01-30T14:59:52;12.30;63.80
810;DHT22;387;48.772;9.186;2024-01-30T15:02:17;12.30;63.70
810;DHT22;387;48.772;9.186;2024-01-30T15:04:43;12.30;63.50
810;DHT22;387;48.772;9.186;2024-01-30T15:07:08;11.90;63.90
810;DHT22;387;48.772;9.186;2024-01-30T15:09:34;11.80;64.20
810;DHT22;387;48.772;9.186;2024-01-30T15:12:00;11.80;64.40
810;DHT22;387;48.772;9.186;2024-01-30T15:14:25;11.90;64.20
810;DHT22;387;48.772;9.186;2024-01-30T15:16:51;11.90;64.20
810;DHT22;387;48.772;9.186;2024-01-30T15:19:18;11.90;64.40
810;DHT22;387;48.772;9.186;2024-01-30T15:21:43;11.90;64.40
810;DHT22;387;48.772;9.186;2024-01-30T15:24:09;11.90;64.40
810;DHT22;387;48.772;9.186;2024-01-30T15:26:38;11.80;64.50
810;DHT22;387;48.772;9.186;2024-01-30T15:29:03;11.80;64.80
810;DHT22;387;48.772;9.186;2024-01-30T15:31:29;11.80;64.80
810;DHT22;387;48.772;9.186;2024-01-30T15:33:55;11.80;64.80
810;DHT22;387;48.772;9.186;2024-01-30T15:36:22;11.80;64.80
810;DHT22;387;48.772;9.186;2024-01-30T15:38:48;11.70;65.00
810;DHT22;387;48.772;9.186;2024-01-30T15:41:13;11.70;65.00
810;DHT22;387;48.772;9.186;2024-01-30T15:43:39;11.70;65.00
810;DHT22;387;48.772;9.186;2024-01-30T15:46:05;11.70;65.30
810;DHT22;387;48.772;9.186;2024-01-30T15:48:31;11.60;65.40
810;DHT22;387;48.772;9.186;2024-01-30T15:50:57;11.60;65.60
810;DHT22;387;48.772;9.186;2024-01-30T15:53:22;11.50;65.60
810;DHT22;387;48.772;9.186;2024-01-30T15:55:51;11.40;65.80
810;DHT22;387;48.772;9.186;2024-01-30T15:58:16;11.40;66.10
810;DHT22;387;48.772;9.186;2024-01-30T16:00:42;11.30;66.10
810;DHT22;387;48.772;9.186;2024-01-30T16:03:08;11.30;66.40
810;DHT22;387;48.772;9.186;2024-01-30T16:05:33;11.30;66.60
810;DHT22;387;48.772;9.186;2024-01-30T16:08:00;11.20;66.60
810;DHT22;387;48.772;9.186;2024-01-30T16:10:26;11.10;66.70
810;DHT22;387;48.772;9.186;2024-01-30T16:12:52;11.00;66.70
810;DHT22;387;48.772;9.186;2024-01-30T16:15:17;11.00;67.00
810;DHT22;387;48.772;9.186;2024-01-30T16:17:46;10.90;66.90
810;DHT22;387;48.772;9.186;2024-01-30T16:20:12;10.80;67.00
810;DHT22;387;48.772;9.186;2024-01-30T16:22:41;10.80;67.20
810;DHT22;387;48.772;9.186;2024-01-30T16:25:07;10.70;67.30
810;DHT22;387;48.772;9.186;2024-01-30T16:27:33;10.70;67.30
810;DHT22;387;48.772;9.186;2024-01-30T16:29:58;10.50;67.30
810;DHT22;387;48.772;9.186;2024-01-30T16:32:24;10.40;67.60
810;DHT22;387;48.772;9.186;2024-01-30T16:34:49;10.30;67.70
810;DHT22;387;48.772;9.186;2024-01-30T16:37:15;10.20;67.90
810;DHT22;387;48.772;9.186;2024-01-30T16:39:41;10.10;68.30
810;DHT22;387;48.772;9.186;2024-01-30T16:42:08;10.20;68.20
810;DHT22;387;48.772;9.186;2024-01-30T16:44:34;10.20;68.20